sensor_id;sensor_type;location;lat;lon;timestamp;P1;durP1;ratioP1;P2;durP2;ratioP2
23636;SDS011;11995;50.842;4.456;2023-02-15T00:00:21;83.17;;;40.92;;
23636;SDS011;11995;50.842;4.456;2023-02-15T00:02:51;88.33;;;41.13;;
23636;SDS011;11995;50.842;4.456;2023-02-15T00:05:22;82.45;;;41.77;;
23636;SDS011;11995;50.842;4.456;2023-02-15T00:07:49;80.62;;;40.23;;
23636;SDS011;11995;50.842;4.456;2023-02-15T00:10:17;88.42;;;41.80;;
23636;SDS011;11995;50.842;4.456;2023-02-15T00:12:44;93.55;;;41.20;;
23636;SDS011;11995;50.842;4.456;2023-02-15T00:15:12;92.20;;;42.73;;
23636;SDS011;11995;50.842;4.456;2023-02-15T00:17:39;83.92;;;42.03;;
23636;SDS011;11995;50.842;4.456;2023-02-15T00:20:08;88.58;;;41.18;;
23636;SDS011;11995;50.842;4.456;2023-02-15T00:22:36;86.87;;;41.80;;
23636;SDS011;11995;50.842;4.456;2023-02-15T00:25:04;88.07;;;41.50;;
23636;SDS011;11995;50.842;4.456;2023-02-15T00:27:32;80.92;;;42.35;;
23636;SDS011;11995;50.842;4.456;2023-02-15T00:30:00;84.50;;;40.28;;
23636;SDS011;11995;50.842;4.456;2023-02-15T00:32:28;92.62;;;43.00;;
23636;SDS011;11995;50.842;4.456;2023-02-15T00:34:55;93.92;;;41.95;;
23636;SDS011;11995;50.842;4.456;2023-02-15T00:37:22;84.22;;;40.23;;
23636;SDS011;11995;50.842;4.456;2023-02-15T00:39:50;83.05;;;39.63;;
23636;SDS011;11995;50.842;4.456;2023-02-15T00:42:18;90.42;;;42.67;;
23636;SDS011;11995;50.842;4.456;2023-02-15T00:44:45;84.13;;;39.75;;
23636;SDS011;11995;50.842;4.456;2023-02-15T00:47:12;89.17;;;42.50;;
23636;SDS011;11995;50.842;4.456;2023-02-15T00:49:40;94.13;;;41.23;;
23636;SDS011;11995;50.842;4.456;2023-02-15T00:52:07;88.87;;;40.55;;
23636;SDS011;11995;50.842;4.456;2023-02-15T00:54:35;90.22;;;39.92;;
23636;SDS011;11995;50.842;4.456;2023-02-15T00:57:04;87.70;;;41.65;;
23636;SDS011;11995;50.842;4.456;2023-02-15T00:59:32;93.67;;;42.23;;
23636;SDS011;11995;50.842;4.456;2023-02-15T01:01:59;93.52;;;41.63;;
23636;SDS011;11995;50.842;4.456;2023-02-15T01:04:27;89.45;;;40.83;;
23636;SDS011;11995;50.842;4.456;2023-02-15T01:06:54;86.87;;;41.70;;
23636;SDS011;11995;50.842;4.456;2023-02-15T01:09:22;92.08;;;40.78;;
23636;SDS011;11995;50.842;4.456;2023-02-15T01:11:49;91.10;;;42.95;;
23636;SDS011;11995;50.842;4.456;2023-02-15T01:14:17;93.78;;;41.60;;
23636;SDS011;11995;50.842;4.456;2023-02-15T01:16:45;81.02;;;39.85;;
23636;SDS011;11995;50.842;4.456;2023-02-15T01:19:14;89.05;;;40.98;;
23636;SDS011;11995;50.842;4.456;2023-02-15T01:21:41;84.30;;;41.58;;
23636;SDS011;11995;50.842;4.456;2023-02-15T01:24:12;88.30;;;41.28;;
23636;SDS011;11995;50.842;4.456;2023-02-15T01:26:40;86.08;;;39.90;;
23636;SDS011;11995;50.842;4.456;2023-02-15T01:31:36;86.53;;;39.88;;
23636;SDS011;11995;50.842;4.456;2023-02-15T01:34:04;83.75;;;39.88;;
23636;SDS011;11995;50.842;4.456;2023-02-15T01:36:33;85.10;;;42.03;;
23636;SDS011;11995;50.842;4.456;2023-02-15T01:39:01;86.45;;;40.50;;
23636;SDS011;11995;50.842;4.456;2023-02-15T01:41:29;82.08;;;39.05;;
23636;SDS011;11995;50.842;4.456;2023-02-15T01:43:57;82.97;;;40.12;;
23636;SDS011;11995;50.842;4.456;2023-02-15T01:46:41;79.05;;;39.75;;
23636;SDS011;11995;50.842;4.456;2023-02-15T01:49:10;90.30;;;40.17;;
23636;SDS011;11995;50.842;4.456;2023-02-15T01:51:39;85.50;;;41.90;;
23636;SDS011;11995;50.842;4.456;2023-02-15T01:54:11;86.53;;;40.43;;
23636;SDS011;11995;50.842;4.456;2023-02-15T01:56:40;88.35;;;41.33;;
23636;SDS011;11995;50.842;4.456;2023-02-15T01:59:11;70.50;;;31.77;;
23636;SDS011;11995;50.842;4.456;2023-02-15T02:01:41;96.02;;;42.98;;
23636;SDS011;11995;50.842;4.456;2023-02-15T02:04:22;87.10;;;42.30;;
23636;SDS011;11995;50.842;4.456;2023-02-15T02:06:58;91.25;;;41.08;;
23636;SDS011;11995;50.842;4.456;2023-02-15T02:09:27;87.92;;;41.53;;
23636;SDS011;11995;50.842;4.456;2023-02-15T02:11:56;100.10;;;43.15;;
23636;SDS011;11995;50.842;4.456;2023-02-15T02:14:23;89.77;;;42.55;;
23636;SDS011;11995;50.842;4.456;2023-02-15T02:16:53;84.13;;;41.30;;
23636;SDS011;11995;50.842;4.456;2023-02-15T02:19:46;90.30;;;42.48;;
23636;SDS011;11995;50.842;4.456;2023-02-15T02:22:44;82.82;;;40.23;;
23636;SDS011;11995;50.842;4.456;2023-02-15T02:25:32;91.00;;;41.98;;
23636;SDS011;11995;50.842;4.456;2023-02-15T02:34:12;82.92;;;41.90;;
23636;SDS011;11995;50.842;4.456;2023-02-15T02:36:54;94.93;;;42.90;;
23636;SDS011;11995;50.842;4.456;2023-02-15T02:39:31;90.65;;;42.38;;
23636;SDS011;11995;50.842;4.456;2023-02-15T02:42:18;87.88;;;41.48;;
23636;SDS011;11995;50.842;4.456;2023-02-15T02:44:49;91.17;;;42.48;;
23636;SDS011;11995;50.842;4.456;2023-02-15T02:47:22;88.15;;;42.17;;
23636;SDS011;11995;50.842;4.456;2023-02-15T02:49:52;90.90;;;42.38;;
23636;SDS011;11995;50.842;4.456;2023-02-15T02:52:42;94.85;;;43.25;;
23636;SDS011;11995;50.842;4.456;2023-02-15T02:58:04;86.80;;;41.05;;
23636;SDS011;11995;50.842;4.456;2023-02-15T03:00:32;92.72;;;41.65;;
23636;SDS011;11995;50.842;4.456;2023-02-15T03:03:12;81.70;;;40.83;;
23636;SDS011;11995;50.842;4.456;2023-02-15T03:05:41;87.08;;;40.12;;
23636;SDS011;11995;50.842;4.456;2023-02-15T03:08:12;91.35;;;41.00;;
23636;SDS011;11995;50.842;4.456;2023-02-15T03:10:46;91.72;;;42.90;;
23636;SDS011;11995;50.842;4.456;2023-02-15T03:13:19;86.80;;;41.30;;
23636;SDS011;11995;50.842;4.456;2023-02-15T03:15:48;87.25;;;40.60;;
23636;SDS011;11995;50.842;4.456;2023-02-15T03:18:36;93.97;;;40.80;;
23636;SDS011;11995;50.842;4.456;2023-02-15T03:21:06;83.22;;;40.45;;
23636;SDS011;11995;50.842;4.456;2023-02-15T03:23:37;80.70;;;39.65;;
23636;SDS011;11995;50.842;4.456;2023-02-15T03:28:43;85.57;;;39.80;;
23636;SDS011;11995;50.842;4.456;2023-02-15T03:31:13;85.77;;;40.50;;
23636;SDS011;11995;50.842;4.456;2023-02-15T03:33:54;78.42;;;40.45;;
23636;SDS011;11995;50.842;4.456;2023-02-15T03:36:24;88.50;;;40.23;;
23636;SDS011;11995;50.842;4.456;2023-02-15T03:39:07;83.07;;;39.25;;
23636;SDS011;11995;50.842;4.456;2023-02-15T03:44:43;82.72;;;40.73;;
23636;SDS011;11995;50.842;4.456;2023-02-15T03:47:13;90.38;;;41.30;;
23636;SDS011;11995;50.842;4.456;2023-02-15T03:49:57;88.22;;;42.15;;
23636;SDS011;11995;50.842;4.456;2023-02-15T03:52:58;84.83;;;41.48;;
23636;SDS011;11995;50.842;4.456;2023-02-15T03:55:28;79.32;;;39.90;;
23636;SDS011;11995;50.842;4.456;2023-02-15T03:58:00;81.20;;;39.98;;
23636;SDS011;11995;50.842;4.456;2023-02-15T04:00:49;78.22;;;40.12;;
23636;SDS011;11995;50.842;4.456;2023-02-15T04:03:48;96.80;;;42.13;;
23636;SDS011;11995;50.842;4.456;2023-02-15T04:06:11;90.57;;;41.63;;
23636;SDS011;11995;50.842;4.456;2023-02-15T04:08:39;85.05;;;41.75;;
23636;SDS011;11995;50.842;4.456;2023-02-15T04:11:24;84.62;;;40.20;;
23636;SDS011;11995;50.842;4.456;2023-02-15T04:13:52;87.27;;;41.42;;
23636;SDS011;11995;50.842;4.456;2023-02-15T04:16:21;87.82;;;39.98;;
23636;SDS011;11995;50.842;4.456;2023-02-15T04:18:49;90.28;;;42.13;;
23636;SDS011;11995;50.842;4.456;2023-02-15T04:21:35;84.50;;;41.40;;
23636;SDS011;11995;50.842;4.456;2023-02-15T04:24:20;88.50;;;41.37;;
23636;SDS011;11995;50.842;4.456;2023-02-15T04:27:06;94.35;;;41.63;;
23636;SDS011;11995;50.842;4.456;2023-02-15T04:29:33;81.87;;;41.70;;
23636;SDS011;11995;50.842;4.456;2023-02-15T04:32:01;82.05;;;41.20;;
23636;SDS011;11995;50.842;4.456;2023-02-15T04:34:28;84.40;;;40.60;;
23636;SDS011;11995;50.842;4.456;2023-02-15T04:36:56;90.65;;;41.92;;
23636;SDS011;11995;50.842;4.456;2023-02-15T04:39:23;86.30;;;39.83;;
23636;SDS011;11995;50.842;4.456;2023-02-15T04:41:51;84.80;;;40.08;;
23636;SDS011;11995;50.842;4.456;2023-02-15T04:44:18;82.20;;;39.83;;
23636;SDS011;11995;50.842;4.456;2023-02-15T04:46:46;85.70;;;39.40;;
23636;SDS011;11995;50.842;4.456;2023-02-15T04:49:14;86.95;;;41.92;;
23636;SDS011;11995;50.842;4.456;2023-02-15T04:51:42;78.52;;;37.75;;
23636;SDS011;11995;50.842;4.456;2023-02-15T04:54:09;76.92;;;40.75;;
23636;SDS011;11995;50.842;4.456;2023-02-15T04:59:05;86.42;;;40.52;;
23636;SDS011;11995;50.842;4.456;2023-02-15T05:01:33;83.20;;;41.10;;
23636;SDS011;11995;50.842;4.456;2023-02-15T05:04:00;87.25;;;40.17;;
23636;SDS011;11995;50.842;4.456;2023-02-15T05:06:28;98.83;;;43.37;;
23636;SDS011;11995;50.842;4.456;2023-02-15T05:08:56;94.58;;;43.38;;
23636;SDS011;11995;50.842;4.456;2023-02-15T05:11:25;92.05;;;43.80;;
23636;SDS011;11995;50.842;4.456;2023-02-15T05:13:53;89.75;;;40.35;;
23636;SDS011;11995;50.842;4.456;2023-02-15T05:16:21;94.90;;;44.70;;
23636;SDS011;11995;50.842;4.456;2023-02-15T05:18:48;88.22;;;41.40;;
23636;SDS011;11995;50.842;4.456;2023-02-15T05:21:16;93.00;;;44.38;;
23636;SDS011;11995;50.842;4.456;2023-02-15T05:23:43;96.60;;;45.03;;
23636;SDS011;11995;50.842;4.456;2023-02-15T05:26:11;94.85;;;43.58;;
23636;SDS011;11995;50.842;4.456;2023-02-15T05:29:00;90.72;;;44.77;;
23636;SDS011;11995;50.842;4.456;2023-02-15T05:31:27;96.32;;;44.55;;
23636;SDS011;11995;50.842;4.456;2023-02-15T05:33:56;88.17;;;44.70;;
23636;SDS011;11995;50.842;4.456;2023-02-15T05:36:24;101.20;;;46.00;;
23636;SDS011;11995;50.842;4.456;2023-02-15T05:38:52;95.15;;;44.83;;
23636;SDS011;11995;50.842;4.456;2023-02-15T05:41:22;94.32;;;44.20;;
23636;SDS011;11995;50.842;4.456;2023-02-15T05:43:57;93.35;;;44.35;;
23636;SDS011;11995;50.842;4.456;2023-02-15T05:46:24;95.83;;;45.90;;
23636;SDS011;11995;50.842;4.456;2023-02-15T05:48:53;95.25;;;46.10;;
23636;SDS011;11995;50.842;4.456;2023-02-15T05:51:20;92.75;;;44.67;;
23636;SDS011;11995;50.842;4.456;2023-02-15T05:53:48;102.58;;;45.65;;
23636;SDS011;11995;50.842;4.456;2023-02-15T05:56:15;87.80;;;44.30;;
23636;SDS011;11995;50.842;4.456;2023-02-15T05:58:46;92.20;;;45.03;;
23636;SDS011;11995;50.842;4.456;2023-02-15T06:01:14;98.30;;;45.20;;
23636;SDS011;11995;50.842;4.456;2023-02-15T06:03:49;84.67;;;44.00;;
23636;SDS011;11995;50.842;4.456;2023-02-15T06:06:18;99.37;;;45.88;;
23636;SDS011;11995;50.842;4.456;2023-02-15T06:08:45;93.10;;;44.85;;
23636;SDS011;11995;50.842;4.456;2023-02-15T06:11:13;97.10;;;45.95;;
23636;SDS011;11995;50.842;4.456;2023-02-15T06:13:41;95.12;;;46.88;;
23636;SDS011;11995;50.842;4.456;2023-02-15T06:16:09;86.40;;;43.38;;
23636;SDS011;11995;50.842;4.456;2023-02-15T06:18:36;88.12;;;43.70;;
23636;SDS011;11995;50.842;4.456;2023-02-15T06:21:05;103.32;;;46.53;;
23636;SDS011;11995;50.842;4.456;2023-02-15T06:23:32;103.80;;;46.08;;
23636;SDS011;11995;50.842;4.456;2023-02-15T06:26:01;91.55;;;44.45;;
23636;SDS011;11995;50.842;4.456;2023-02-15T06:28:29;86.05;;;44.75;;
23636;SDS011;11995;50.842;4.456;2023-02-15T06:30:58;97.05;;;45.65;;
23636;SDS011;11995;50.842;4.456;2023-02-15T06:33:26;93.75;;;42.48;;
23636;SDS011;11995;50.842;4.456;2023-02-15T06:36:01;96.72;;;46.00;;
23636;SDS011;11995;50.842;4.456;2023-02-15T06:38:31;94.60;;;43.90;;
23636;SDS011;11995;50.842;4.456;2023-02-15T06:40:59;101.20;;;46.33;;
23636;SDS011;11995;50.842;4.456;2023-02-15T06:43:27;103.50;;;48.52;;
23636;SDS011;11995;50.842;4.456;2023-02-15T06:45:57;106.60;;;48.90;;
23636;SDS011;11995;50.842;4.456;2023-02-15T06:48:24;105.72;;;47.00;;
23636;SDS011;11995;50.842;4.456;2023-02-15T06:50:57;94.62;;;46.80;;
23636;SDS011;11995;50.842;4.456;2023-02-15T06:53:31;102.50;;;48.42;;
23636;SDS011;11995;50.842;4.456;2023-02-15T06:56:08;96.60;;;47.83;;
23636;SDS011;11995;50.842;4.456;2023-02-15T06:58:39;101.40;;;46.88;;
23636;SDS011;11995;50.842;4.456;2023-02-15T07:01:10;100.72;;;47.40;;
23636;SDS011;11995;50.842;4.456;2023-02-15T07:03:39;96.32;;;45.90;;
23636;SDS011;11995;50.842;4.456;2023-02-15T07:06:07;95.45;;;47.23;;
23636;SDS011;11995;50.842;4.456;2023-02-15T07:08:37;93.35;;;47.05;;
23636;SDS011;11995;50.842;4.456;2023-02-15T07:11:07;100.35;;;46.30;;
23636;SDS011;11995;50.842;4.456;2023-02-15T07:13:52;97.30;;;46.53;;
23636;SDS011;11995;50.842;4.456;2023-02-15T07:16:20;93.75;;;46.90;;
23636;SDS011;11995;50.842;4.456;2023-02-15T07:18:47;102.50;;;47.03;;
23636;SDS011;11995;50.842;4.456;2023-02-15T07:21:15;103.17;;;48.73;;
23636;SDS011;11995;50.842;4.456;2023-02-15T07:23:48;99.35;;;48.15;;
23636;SDS011;11995;50.842;4.456;2023-02-15T07:26:18;91.95;;;46.35;;
23636;SDS011;11995;50.842;4.456;2023-02-15T07:28:45;95.25;;;46.45;;
23636;SDS011;11995;50.842;4.456;2023-02-15T07:31:12;97.70;;;44.98;;
23636;SDS011;11995;50.842;4.456;2023-02-15T07:33:41;96.87;;;47.10;;
23636;SDS011;11995;50.842;4.456;2023-02-15T07:36:09;99.30;;;46.77;;
23636;SDS011;11995;50.842;4.456;2023-02-15T07:38:40;95.17;;;46.58;;
23636;SDS011;11995;50.842;4.456;2023-02-15T07:41:09;95.95;;;43.65;;
23636;SDS011;11995;50.842;4.456;2023-02-15T07:43:43;94.50;;;45.85;;
23636;SDS011;11995;50.842;4.456;2023-02-15T07:46:15;93.10;;;45.20;;
23636;SDS011;11995;50.842;4.456;2023-02-15T07:48:46;94.40;;;44.93;;
23636;SDS011;11995;50.842;4.456;2023-02-15T07:51:15;94.67;;;46.60;;
23636;SDS011;11995;50.842;4.456;2023-02-15T07:53:47;97.42;;;44.63;;
23636;SDS011;11995;50.842;4.456;2023-02-15T07:56:16;90.85;;;44.58;;
23636;SDS011;11995;50.842;4.456;2023-02-15T07:58:51;93.75;;;44.63;;
23636;SDS011;11995;50.842;4.456;2023-02-15T08:01:30;94.83;;;43.45;;
23636;SDS011;11995;50.842;4.456;2023-02-15T08:03:59;95.40;;;44.67;;
23636;SDS011;11995;50.842;4.456;2023-02-15T08:06:28;92.70;;;44.27;;
23636;SDS011;11995;50.842;4.456;2023-02-15T08:09:04;101.72;;;46.18;;
23636;SDS011;11995;50.842;4.456;2023-02-15T08:11:39;95.32;;;45.75;;
23636;SDS011;11995;50.842;4.456;2023-02-15T08:14:11;90.07;;;45.23;;
23636;SDS011;11995;50.842;4.456;2023-02-15T08:16:41;84.05;;;42.00;;
23636;SDS011;11995;50.842;4.456;2023-02-15T08:19:22;91.20;;;43.13;;
23636;SDS011;11995;50.842;4.456;2023-02-15T08:21:47;87.02;;;43.70;;
23636;SDS011;11995;50.842;4.456;2023-02-15T08:24:17;84.55;;;43.33;;
23636;SDS011;11995;50.842;4.456;2023-02-15T08:26:47;86.17;;;44.23;;
23636;SDS011;11995;50.842;4.456;2023-02-15T08:29:17;87.35;;;44.25;;
23636;SDS011;11995;50.842;4.456;2023-02-15T08:31:48;91.75;;;45.55;;
23636;SDS011;11995;50.842;4.456;2023-02-15T08:36:44;89.75;;;45.50;;
23636;SDS011;11995;50.842;4.456;2023-02-15T08:41:44;94.00;;;49.70;;
23636;SDS011;11995;50.842;4.456;2023-02-15T08:44:17;98.78;;;47.73;;
23636;SDS011;11995;50.842;4.456;2023-02-15T08:46:48;95.05;;;48.10;;
23636;SDS011;11995;50.842;4.456;2023-02-15T08:49:22;98.05;;;48.75;;
23636;SDS011;11995;50.842;4.456;2023-02-15T08:51:49;87.72;;;46.35;;
23636;SDS011;11995;50.842;4.456;2023-02-15T08:54:18;88.70;;;48.28;;
23636;SDS011;11995;50.842;4.456;2023-02-15T08:56:47;94.40;;;46.20;;
23636;SDS011;11995;50.842;4.456;2023-02-15T08:59:22;87.97;;;46.45;;
23636;SDS011;11995;50.842;4.456;2023-02-15T09:01:54;83.78;;;45.48;;
23636;SDS011;11995;50.842;4.456;2023-02-15T09:04:25;84.35;;;43.08;;
23636;SDS011;11995;50.842;4.456;2023-02-15T09:06:54;85.80;;;42.93;;
23636;SDS011;11995;50.842;4.456;2023-02-15T09:09:22;68.02;;;35.35;;
23636;SDS011;11995;50.842;4.456;2023-02-15T09:11:50;59.03;;;30.90;;
23636;SDS011;11995;50.842;4.456;2023-02-15T09:14:19;58.02;;;28.38;;
23636;SDS011;11995;50.842;4.456;2023-02-15T09:16:51;55.20;;;27.67;;
23636;SDS011;11995;50.842;4.456;2023-02-15T09:19:20;53.95;;;27.75;;
23636;SDS011;11995;50.842;4.456;2023-02-15T09:21:49;54.53;;;26.77;;
23636;SDS011;11995;50.842;4.456;2023-02-15T09:24:17;54.03;;;27.27;;
23636;SDS011;11995;50.842;4.456;2023-02-15T09:26:45;52.10;;;26.60;;
23636;SDS011;11995;50.842;4.456;2023-02-15T09:29:15;53.78;;;26.17;;
23636;SDS011;11995;50.842;4.456;2023-02-15T09:31:45;45.92;;;24.18;;
23636;SDS011;11995;50.842;4.456;2023-02-15T09:34:16;49.73;;;25.27;;
23636;SDS011;11995;50.842;4.456;2023-02-15T09:37:04;51.48;;;24.35;;
23636;SDS011;11995;50.842;4.456;2023-02-15T09:39:32;52.80;;;24.65;;
23636;SDS011;11995;50.842;4.456;2023-02-15T09:44:59;48.63;;;24.07;;
23636;SDS011;11995;50.842;4.456;2023-02-15T09:47:34;49.42;;;26.00;;
23636;SDS011;11995;50.842;4.456;2023-02-15T09:50:54;48.52;;;24.82;;
23636;SDS011;11995;50.842;4.456;2023-02-15T09:53:00;53.33;;;24.55;;
23636;SDS011;11995;50.842;4.456;2023-02-15T09:55:48;44.77;;;23.25;;
23636;SDS011;11995;50.842;4.456;2023-02-15T10:01:03;53.87;;;25.43;;
23636;SDS011;11995;50.842;4.456;2023-02-15T10:03:38;55.83;;;24.40;;
23636;SDS011;11995;50.842;4.456;2023-02-15T10:06:17;50.90;;;24.95;;
23636;SDS011;11995;50.842;4.456;2023-02-15T10:19:31;52.08;;;22.70;;
23636;SDS011;11995;50.842;4.456;2023-02-15T10:24:39;55.85;;;25.35;;
23636;SDS011;11995;50.842;4.456;2023-02-15T10:27:11;54.95;;;26.57;;
23636;SDS011;11995;50.842;4.456;2023-02-15T10:32:28;58.65;;;24.47;;
23636;SDS011;11995;50.842;4.456;2023-02-15T10:45:55;58.92;;;23.70;;
23636;SDS011;11995;50.842;4.456;2023-02-15T10:50:51;58.25;;;24.72;;
23636;SDS011;11995;50.842;4.456;2023-02-15T11:01:55;64.30;;;26.97;;
23636;SDS011;11995;50.842;4.456;2023-02-15T11:07:12;78.72;;;30.60;;
23636;SDS011;11995;50.842;4.456;2023-02-15T11:09:43;71.12;;;27.02;;
23636;SDS011;11995;50.842;4.456;2023-02-15T11:12:13;77.90;;;28.35;;
23636;SDS011;11995;50.842;4.456;2023-02-15T11:14:47;59.08;;;26.82;;
23636;SDS011;11995;50.842;4.456;2023-02-15T11:17:22;57.88;;;25.65;;
23636;SDS011;11995;50.842;4.456;2023-02-15T11:20:54;81.47;;;28.32;;
23636;SDS011;11995;50.842;4.456;2023-02-15T11:22:48;79.35;;;28.65;;
23636;SDS011;11995;50.842;4.456;2023-02-15T11:25:27;56.68;;;27.52;;
23636;SDS011;11995;50.842;4.456;2023-02-15T11:27:55;108.30;;;29.60;;
23636;SDS011;11995;50.842;4.456;2023-02-15T11:30:26;65.90;;;27.48;;
23636;SDS011;11995;50.842;4.456;2023-02-15T11:32:58;82.53;;;39.20;;
23636;SDS011;11995;50.842;4.456;2023-02-15T11:35:30;59.13;;;27.35;;
23636;SDS011;11995;50.842;4.456;2023-02-15T11:38:06;64.45;;;28.12;;
23636;SDS011;11995;50.842;4.456;2023-02-15T11:40:36;113.17;;;31.48;;
23636;SDS011;11995;50.842;4.456;2023-02-15T11:43:33;101.97;;;28.57;;
23636;SDS011;11995;50.842;4.456;2023-02-15T11:46:11;51.92;;;26.82;;
23636;SDS011;11995;50.842;4.456;2023-02-15T11:48:40;73.22;;;26.23;;
23636;SDS011;11995;50.842;4.456;2023-02-15T11:51:12;69.60;;;28.20;;
23636;SDS011;11995;50.842;4.456;2023-02-15T11:53:44;56.83;;;27.10;;
23636;SDS011;11995;50.842;4.456;2023-02-15T12:01:40;97.50;;;33.40;;
23636;SDS011;11995;50.842;4.456;2023-02-15T12:04:21;77.53;;;28.50;;
23636;SDS011;11995;50.842;4.456;2023-02-15T12:07:17;91.08;;;30.08;;
23636;SDS011;11995;50.842;4.456;2023-02-15T12:12:39;57.27;;;28.55;;
23636;SDS011;11995;50.842;4.456;2023-02-15T12:15:07;57.78;;;27.93;;
23636;SDS011;11995;50.842;4.456;2023-02-15T12:17:50;68.40;;;28.55;;
23636;SDS011;11995;50.842;4.456;2023-02-15T12:20:37;64.95;;;26.93;;
23636;SDS011;11995;50.842;4.456;2023-02-15T12:23:06;57.75;;;28.27;;
23636;SDS011;11995;50.842;4.456;2023-02-15T12:25:42;99.58;;;29.72;;
23636;SDS011;11995;50.842;4.456;2023-02-15T12:28:26;85.50;;;30.10;;
23636;SDS011;11995;50.842;4.456;2023-02-15T12:30:55;85.97;;;29.42;;
23636;SDS011;11995;50.842;4.456;2023-02-15T12:33:28;58.92;;;29.65;;
23636;SDS011;11995;50.842;4.456;2023-02-15T12:36:08;61.65;;;28.55;;
23636;SDS011;11995;50.842;4.456;2023-02-15T12:38:40;73.60;;;30.25;;
23636;SDS011;11995;50.842;4.456;2023-02-15T12:41:26;62.35;;;29.72;;
23636;SDS011;11995;50.842;4.456;2023-02-15T12:44:03;104.63;;;31.02;;
23636;SDS011;11995;50.842;4.456;2023-02-15T12:46:33;64.80;;;30.15;;
23636;SDS011;11995;50.842;4.456;2023-02-15T12:51:50;58.45;;;28.77;;
23636;SDS011;11995;50.842;4.456;2023-02-15T12:56:52;53.25;;;28.02;;
23636;SDS011;11995;50.842;4.456;2023-02-15T12:59:20;70.47;;;30.43;;
23636;SDS011;11995;50.842;4.456;2023-02-15T13:01:48;94.07;;;30.43;;
23636;SDS011;11995;50.842;4.456;2023-02-15T13:04:26;89.87;;;31.45;;
23636;SDS011;11995;50.842;4.456;2023-02-15T13:06:57;120.67;;;33.23;;
23636;SDS011;11995;50.842;4.456;2023-02-15T13:09:35;58.95;;;29.12;;
23636;SDS011;11995;50.842;4.456;2023-02-15T13:12:24;78.57;;;29.18;;
23636;SDS011;11995;50.842;4.456;2023-02-15T13:14:57;83.15;;;29.70;;
23636;SDS011;11995;50.842;4.456;2023-02-15T13:17:28;59.48;;;29.80;;
23636;SDS011;11995;50.842;4.456;2023-02-15T13:20:05;61.20;;;29.63;;
23636;SDS011;11995;50.842;4.456;2023-02-15T13:22:38;56.90;;;29.25;;
23636;SDS011;11995;50.842;4.456;2023-02-15T13:25:13;57.83;;;30.20;;
23636;SDS011;11995;50.842;4.456;2023-02-15T13:27:42;64.90;;;31.57;;
23636;SDS011;11995;50.842;4.456;2023-02-15T13:32:56;86.02;;;30.32;;
23636;SDS011;11995;50.842;4.456;2023-02-15T13:35:26;70.62;;;31.02;;
23636;SDS011;11995;50.842;4.456;2023-02-15T13:38:06;62.85;;;30.05;;
23636;SDS011;11995;50.842;4.456;2023-02-15T13:41:04;100.27;;;33.28;;
23636;SDS011;11995;50.842;4.456;2023-02-15T13:43:44;106.70;;;41.63;;
23636;SDS011;11995;50.842;4.456;2023-02-15T13:46:38;185.85;;;45.80;;
23636;SDS011;11995;50.842;4.456;2023-02-15T13:49:29;78.65;;;39.30;;
23636;SDS011;11995;50.842;4.456;2023-02-15T13:59:57;65.42;;;31.48;;
23636;SDS011;11995;50.842;4.456;2023-02-15T14:08:29;56.60;;;31.87;;
23636;SDS011;11995;50.842;4.456;2023-02-15T14:11:01;65.83;;;33.73;;
23636;SDS011;11995;50.842;4.456;2023-02-15T14:18:59;75.67;;;35.78;;
23636;SDS011;11995;50.842;4.456;2023-02-15T14:30:00;82.17;;;36.15;;
23636;SDS011;11995;50.842;4.456;2023-02-15T14:32:33;74.72;;;34.63;;
23636;SDS011;11995;50.842;4.456;2023-02-15T14:35:13;90.15;;;37.13;;
23636;SDS011;11995;50.842;4.456;2023-02-15T14:43:30;70.15;;;32.45;;
23636;SDS011;11995;50.842;4.456;2023-02-15T14:49:13;78.65;;;33.90;;
23636;SDS011;11995;50.842;4.456;2023-02-15T14:57:33;80.72;;;36.30;;
23636;SDS011;11995;50.842;4.456;2023-02-15T14:59:46;79.27;;;35.78;;
23636;SDS011;11995;50.842;4.456;2023-02-15T15:02:45;73.78;;;36.42;;
23636;SDS011;11995;50.842;4.456;2023-02-15T15:05:10;105.45;;;40.33;;
23636;SDS011;11995;50.842;4.456;2023-02-15T15:07:47;75.60;;;36.55;;
23636;SDS011;11995;50.842;4.456;2023-02-15T15:12:56;116.53;;;38.42;;
23636;SDS011;11995;50.842;4.456;2023-02-15T15:20:40;75.78;;;37.15;;
23636;SDS011;11995;50.842;4.456;2023-02-15T15:25:56;175.90;;;45.70;;
23636;SDS011;11995;50.842;4.456;2023-02-15T15:31:48;70.37;;;38.15;;
23636;SDS011;11995;50.842;4.456;2023-02-15T15:34:06;74.25;;;37.63;;
23636;SDS011;11995;50.842;4.456;2023-02-15T15:36:47;74.60;;;36.83;;
23636;SDS011;11995;50.842;4.456;2023-02-15T15:39:21;99.50;;;38.70;;
23636;SDS011;11995;50.842;4.456;2023-02-15T15:42:12;92.75;;;40.23;;
23636;SDS011;11995;50.842;4.456;2023-02-15T15:45:16;84.75;;;40.35;;
23636;SDS011;11995;50.842;4.456;2023-02-15T15:50:27;101.10;;;41.30;;
23636;SDS011;11995;50.842;4.456;2023-02-15T15:52:57;102.15;;;43.13;;
23636;SDS011;11995;50.842;4.456;2023-02-15T15:55:26;100.25;;;42.75;;
23636;SDS011;11995;50.842;4.456;2023-02-15T15:57:56;77.85;;;41.70;;
23636;SDS011;11995;50.842;4.456;2023-02-15T16:00:43;95.10;;;41.90;;
23636;SDS011;11995;50.842;4.456;2023-02-15T16:03:20;94.22;;;41.05;;
23636;SDS011;11995;50.842;4.456;2023-02-15T16:05:43;82.37;;;43.58;;
23636;SDS011;11995;50.842;4.456;2023-02-15T16:08:10;81.87;;;44.10;;
23636;SDS011;11995;50.842;4.456;2023-02-15T16:10:38;90.72;;;47.70;;
23636;SDS011;11995;50.842;4.456;2023-02-15T16:13:07;113.12;;;57.40;;
23636;SDS011;11995;50.842;4.456;2023-02-15T16:15:44;113.32;;;54.83;;
23636;SDS011;11995;50.842;4.456;2023-02-15T16:18:16;112.30;;;56.23;;
23636;SDS011;11995;50.842;4.456;2023-02-15T16:21:04;91.20;;;44.73;;
23636;SDS011;11995;50.842;4.456;2023-02-15T16:28:52;96.12;;;45.45;;
23636;SDS011;11995;50.842;4.456;2023-02-15T16:31:21;94.95;;;47.58;;
23636;SDS011;11995;50.842;4.456;2023-02-15T16:33:51;103.83;;;52.38;;
23636;SDS011;11995;50.842;4.456;2023-02-15T16:36:21;79.92;;;42.73;;
23636;SDS011;11995;50.842;4.456;2023-02-15T16:41:21;97.53;;;46.65;;
23636;SDS011;11995;50.842;4.456;2023-02-15T16:43:50;85.03;;;46.33;;
23636;SDS011;11995;50.842;4.456;2023-02-15T16:46:24;92.08;;;47.80;;
23636;SDS011;11995;50.842;4.456;2023-02-15T16:48:54;91.75;;;48.15;;
23636;SDS011;11995;50.842;4.456;2023-02-15T16:51:27;86.22;;;49.63;;
23636;SDS011;11995;50.842;4.456;2023-02-15T16:53:59;87.08;;;46.88;;
23636;SDS011;11995;50.842;4.456;2023-02-15T16:56:29;73.45;;;42.03;;
23636;SDS011;11995;50.842;4.456;2023-02-15T16:59:01;81.05;;;41.88;;
23636;SDS011;11995;50.842;4.456;2023-02-15T17:01:30;86.00;;;45.78;;
23636;SDS011;11995;50.842;4.456;2023-02-15T17:07:06;86.50;;;47.43;;
23636;SDS011;11995;50.842;4.456;2023-02-15T17:09:52;88.80;;;47.60;;
23636;SDS011;11995;50.842;4.456;2023-02-15T17:15:25;89.22;;;44.48;;
23636;SDS011;11995;50.842;4.456;2023-02-15T17:17:58;83.67;;;44.53;;
23636;SDS011;11995;50.842;4.456;2023-02-15T17:20:32;81.20;;;44.08;;
23636;SDS011;11995;50.842;4.456;2023-02-15T17:23:01;83.70;;;44.27;;
23636;SDS011;11995;50.842;4.456;2023-02-15T17:25:35;84.25;;;43.70;;
23636;SDS011;11995;50.842;4.456;2023-02-15T17:28:03;83.58;;;43.23;;
23636;SDS011;11995;50.842;4.456;2023-02-15T17:33:01;79.58;;;43.08;;